ADB weather

Adnan Menderes International Airport
─░zmir, ─░zmir Province, Turkey

Public forecast

Using degrees Celsius for public forecast. Weather courtesy of forecast.io.

METAR (pilot weather report)

Retrieved 2019/03/26 05:20 UTC (24 minutes ago):

LTBJ 260520Z 00000KT CAVOK 06/02 Q1009 NOSIG

TAF (pilot weather forecast)

Forecast is more than 6 hours old.

Retrieved 2019/03/25 18:00 UTC (12 hours ago):

TAF LTBJ 251640Z 2518/2618 36015KT CAVOK BECMG 2519/2521 VRB02KT BECMG 2610/2612 36012KT